createdAt,value
2019-01-05T00:00:18.113Z,17.73
2019-01-05T00:03:03.219Z,17.27
2019-01-05T00:05:48.169Z,15.83
2019-01-05T00:08:31.661Z,16.37
2019-01-05T00:11:14.898Z,17.00
2019-01-05T00:13:43.310Z,16.07
2019-01-05T00:16:24.251Z,14.97
2019-01-05T00:19:08.027Z,15.03
2019-01-05T00:21:53.362Z,14.70
2019-01-05T00:24:24.397Z,13.30
2019-01-05T00:27:09.656Z,15.60
2019-01-05T00:29:43.240Z,17.10
2019-01-05T00:32:34.817Z,14.87
2019-01-05T00:35:06.778Z,16.67
2019-01-05T00:37:48.694Z,17.53
2019-01-05T00:40:27.272Z,15.53
2019-01-05T00:42:58.853Z,15.80
2019-01-05T00:45:29.144Z,13.87
2019-01-05T00:47:58.322Z,13.30
2019-01-05T00:50:31.355Z,14.47
2019-01-05T00:53:11.938Z,14.03
2019-01-05T00:55:56.993Z,13.00
2019-01-05T00:58:25.946Z,14.90
2019-01-05T01:01:00.433Z,16.50
2019-01-05T01:03:45.615Z,15.20
2019-01-05T01:06:14.018Z,14.33
2019-01-05T01:08:42.495Z,12.93
2019-01-05T01:11:27.593Z,12.37
2019-01-05T01:13:56.029Z,11.37
2019-01-05T01:16:33.554Z,11.30
2019-01-05T01:19:18.566Z,13.03
2019-01-05T01:21:50.606Z,14.23
2019-01-05T01:24:21.745Z,11.07
2019-01-05T01:26:52.897Z,11.40
2019-01-05T01:29:24.136Z,10.40
2019-01-05T01:32:08.856Z,11.43
2019-01-05T01:34:55.252Z,11.07
2019-01-05T01:37:33.034Z,11.00
2019-01-05T01:40:20.433Z,9.83
2019-01-05T01:42:51.393Z,10.73
2019-01-05T01:45:36.490Z,10.67
2019-01-05T01:48:19.772Z,11.37
2019-01-05T01:51:06.685Z,12.07
2019-01-05T01:53:35.754Z,10.40
2019-01-05T01:56:09.410Z,11.70
2019-01-05T01:58:52.573Z,11.40
2019-01-05T02:01:21.125Z,11.30
2019-01-05T02:03:58.815Z,11.57
2019-01-05T02:06:45.664Z,10.93
2019-01-05T02:09:29.177Z,12.90
2019-01-05T02:12:07.173Z,11.43
2019-01-05T02:14:50.741Z,15.50
2019-01-05T02:17:34.949Z,13.47
2019-01-05T02:20:22.047Z,13.17
2019-01-05T02:23:12.045Z,14.43
2019-01-05T02:26:19.994Z,12.37
2019-01-05T02:29:07.137Z,13.50
2019-01-05T02:32:11.335Z,14.93
2019-01-05T02:34:59.925Z,15.53
2019-01-05T02:38:20.578Z,14.03
2019-01-05T02:40:58.400Z,15.47
2019-01-05T02:44:18.605Z,15.87
2019-01-05T02:46:59.801Z,13.60
2019-01-05T02:49:46.926Z,17.03
2019-01-05T02:52:43.479Z,15.17
2019-01-05T02:55:35.170Z,15.13
2019-01-05T02:58:43.606Z,13.70
2019-01-05T03:01:21.648Z,14.07
2019-01-05T03:04:22.658Z,16.50
2019-01-05T03:07:33.155Z,13.57
2019-01-05T03:10:14.269Z,14.53
2019-01-05T03:13:10.717Z,14.53
2019-01-05T03:16:02.165Z,13.87
2019-01-05T03:18:45.900Z,15.13
2019-01-05T03:21:56.131Z,14.83
2019-01-05T03:25:16.652Z,16.07
2019-01-05T03:28:28.386Z,16.03
2019-01-05T03:31:20.923Z,16.03
2019-01-05T03:34:04.528Z,18.23
2019-01-05T03:37:09.576Z,16.93
2019-01-05T03:40:06.973Z,18.93
2019-01-05T03:42:48.033Z,16.67
2019-01-05T03:45:42.819Z,17.43
2019-01-05T03:48:36.401Z,16.70
2019-01-05T03:51:24.570Z,17.67
2019-01-05T03:54:22.589Z,17.43
2019-01-05T03:57:06.690Z,18.30
2019-01-05T03:59:56.571Z,20.33
2019-01-05T04:02:51.415Z,19.13
2019-01-05T04:05:56.977Z,17.70
2019-01-05T04:09:01.073Z,17.60
2019-01-05T04:11:48.397Z,16.87
2019-01-05T04:14:44.960Z,17.20
2019-01-05T04:17:47.086Z,17.63
2019-01-05T04:21:01.991Z,17.20
2019-01-05T04:24:24.595Z,15.83
2019-01-05T04:27:31.005Z,17.77
2019-01-05T04:30:26.798Z,15.40
2019-01-05T04:33:15.570Z,17.20
2019-01-05T04:36:10.585Z,18.23
2019-01-05T04:38:48.606Z,18.93
2019-01-05T04:41:37.414Z,18.07
2019-01-05T04:44:59.135Z,17.07
2019-01-05T04:47:31.115Z,18.80
2019-01-05T04:50:38.406Z,20.33
2019-01-05T04:53:50.192Z,17.33
2019-01-05T04:56:53.708Z,21.00
2019-01-05T04:59:53.399Z,20.10
2019-01-05T05:02:37.545Z,19.27
2019-01-05T05:05:46.269Z,21.20
2019-01-05T05:08:38.968Z,21.93
2019-01-05T05:11:30.667Z,21.40
2019-01-05T05:14:41.581Z,22.00
2019-01-05T05:17:47.037Z,22.43
2019-01-05T05:20:46.093Z,20.37
2019-01-05T05:23:33.072Z,20.10
2019-01-05T05:26:11.095Z,21.83
2019-01-05T05:29:16.857Z,21.53
2019-01-05T05:31:51.789Z,21.23
2019-01-05T05:34:59.076Z,20.37
2019-01-05T05:38:13.522Z,21.50
2019-01-05T05:41:28.344Z,20.57
2019-01-05T05:44:27.289Z,19.33
2019-01-05T05:47:26.784Z,19.47
2019-01-05T05:50:42.778Z,17.83
2019-01-05T05:54:05.414Z,18.43
2019-01-05T05:57:16.797Z,17.87
2019-01-05T06:00:06.793Z,20.03
2019-01-05T06:03:23.350Z,18.57
2019-01-05T06:06:25.172Z,17.90
2019-01-05T06:09:35.032Z,17.63
2019-01-05T06:12:32.735Z,18.00
2019-01-05T06:15:50.813Z,17.93
2019-01-05T06:18:51.606Z,17.17
2019-01-05T06:21:56.448Z,17.20
2019-01-05T06:25:12.153Z,15.00
2019-01-05T06:28:09.812Z,15.63
2019-01-05T06:30:59.649Z,17.27
2019-01-05T06:34:03.543Z,16.27
2019-01-05T06:36:41.380Z,18.37
2019-01-05T06:39:22.502Z,17.57
2019-01-05T06:42:27.642Z,15.83
2019-01-05T06:45:40.780Z,16.30
2019-01-05T06:48:38.792Z,17.43
2019-01-05T06:51:28.857Z,15.80
2019-01-05T06:54:15.456Z,18.40
2019-01-05T06:57:08.695Z,17.10
2019-01-05T06:59:59.655Z,17.70
2019-01-05T07:03:09.605Z,15.87
2019-01-05T07:06:18.389Z,14.43
2019-01-05T07:09:19.700Z,16.50
2019-01-05T07:12:34.473Z,13.50
2019-01-05T07:15:27.126Z,16.10
2019-01-05T07:18:39.105Z,15.03
2019-01-05T07:21:44.319Z,12.90
2019-01-05T07:25:02.311Z,14.83
2019-01-05T07:27:59.974Z,15.37
2019-01-05T07:30:55.506Z,11.60
2019-01-05T07:34:07.075Z,12.77
2019-01-05T07:36:54.352Z,11.40
2019-01-05T07:40:01.678Z,13.50
2019-01-05T07:43:05.787Z,13.17
2019-01-05T07:46:08.344Z,10.83
2019-01-05T07:49:17.167Z,11.13
2019-01-05T07:52:23.233Z,16.10
2019-01-05T07:55:31.161Z,12.73
2019-01-05T07:58:14.926Z,14.17
2019-01-05T08:01:37.418Z,14.63
2019-01-05T08:04:41.366Z,13.53
2019-01-05T08:08:03.931Z,12.87
2019-01-05T08:11:01.940Z,12.67
2019-01-05T08:13:40.063Z,13.47
2019-01-05T08:16:38.630Z,14.90
2019-01-05T08:20:05.148Z,14.46
2019-01-05T08:22:47.954Z,13.40
2019-01-05T08:25:43.765Z,13.87
2019-01-05T08:28:36.988Z,13.73
2019-01-05T08:31:44.890Z,11.70
2019-01-05T08:35:08.926Z,14.83
2019-01-05T08:38:22.600Z,12.70
2019-01-05T08:41:28.171Z,12.63
2019-01-05T08:44:43.280Z,15.43
2019-01-05T08:47:32.067Z,16.47
2019-01-05T08:50:39.629Z,29.83
2019-01-05T08:53:48.618Z,34.10
2019-01-05T08:56:49.853Z,30.30
2019-01-05T08:59:54.103Z,28.60
2019-01-05T09:03:00.666Z,20.03
2019-01-05T09:06:23.095Z,14.83
2019-01-05T09:09:10.159Z,13.33
2019-01-05T09:12:11.716Z,11.33
2019-01-05T09:14:43.730Z,10.60
2019-01-05T09:17:44.622Z,9.87
2019-01-05T09:20:49.037Z,9.20
2019-01-05T09:23:54.955Z,8.50
2019-01-05T09:27:05.935Z,8.10
2019-01-05T09:29:58.437Z,7.20
2019-01-05T09:33:30.036Z,6.40
2019-01-05T09:36:41.561Z,5.33
2019-01-05T09:39:54.699Z,6.43
2019-01-05T09:43:12.867Z,8.40
2019-01-05T09:46:00.164Z,17.13
2019-01-05T09:48:57.283Z,19.43
2019-01-05T09:52:01.814Z,26.00
2019-01-05T09:55:02.958Z,38.13
2019-01-05T09:57:51.547Z,31.60
2019-01-05T10:00:42.708Z,15.57
2019-01-05T10:03:44.738Z,10.00
2019-01-05T10:07:05.236Z,7.10
2019-01-05T10:09:51.614Z,6.20
2019-01-05T10:12:47.373Z,5.20
2019-01-05T10:15:39.160Z,4.93
2019-01-05T10:18:43.920Z,4.60
2019-01-05T10:21:34.366Z,5.47
2019-01-05T10:24:27.424Z,5.47
2019-01-05T10:27:08.061Z,4.90
2019-01-05T10:30:15.075Z,3.67
2019-01-05T10:33:22.298Z,7.17
2019-01-05T10:36:15.076Z,5.50
2019-01-05T10:39:02.420Z,4.67
2019-01-05T10:42:11.009Z,3.97
2019-01-05T10:45:16.436Z,3.00
2019-01-05T10:48:05.391Z,3.30
2019-01-05T10:51:10.667Z,2.93
2019-01-05T10:54:22.220Z,2.80
2019-01-05T10:57:24.319Z,2.70
2019-01-05T11:00:19.316Z,3.30
2019-01-05T11:03:10.830Z,9.53
2019-01-05T11:05:48.761Z,6.33
2019-01-05T11:08:42.074Z,4.37
2019-01-05T11:11:33.863Z,2.97
2019-01-05T11:14:08.821Z,2.87
2019-01-05T11:16:52.816Z,2.70
2019-01-05T11:19:42.992Z,3.03
2019-01-05T11:22:52.846Z,3.07
2019-01-05T11:25:47.651Z,2.87
2019-01-05T11:28:25.377Z,2.80
2019-01-05T11:31:28.863Z,3.00
2019-01-05T11:34:36.131Z,2.90
2019-01-05T11:37:22.884Z,2.80
2019-01-05T11:40:45.218Z,4.60
2019-01-05T11:43:27.354Z,9.73
2019-01-05T11:46:17.599Z,9.03
2019-01-05T11:48:58.359Z,6.90
2019-01-05T11:52:05.436Z,7.80
2019-01-05T11:54:52.802Z,4.53
2019-01-05T11:58:04.249Z,3.93
2019-01-05T12:00:51.561Z,3.37
2019-01-05T12:03:41.290Z,3.83
2019-01-05T12:06:42.626Z,3.20
2019-01-05T12:09:26.427Z,3.73
2019-01-05T12:12:50.593Z,3.00
2019-01-05T12:15:56.291Z,2.70
2019-01-05T12:19:08.009Z,2.70
2019-01-05T12:22:14.804Z,2.70
2019-01-05T12:24:52.319Z,2.90
2019-01-05T12:28:09.777Z,2.40
2019-01-05T12:30:59.537Z,2.30
2019-01-05T12:33:57.430Z,2.60
2019-01-05T12:36:57.762Z,2.60
2019-01-05T12:40:04.350Z,2.83
2019-01-05T12:42:45.156Z,2.50
2019-01-05T12:45:22.980Z,2.20
2019-01-05T12:48:14.365Z,2.07
2019-01-05T12:50:51.539Z,2.50
2019-01-05T12:53:56.973Z,3.00
2019-01-05T12:57:01.347Z,17.03
2019-01-05T12:59:48.184Z,23.00
2019-01-05T13:02:46.840Z,17.77
2019-01-05T13:05:42.657Z,13.90
2019-01-05T13:08:34.695Z,8.93
2019-01-05T13:11:32.829Z,5.30
2019-01-05T13:14:21.375Z,4.30
2019-01-05T13:17:17.249Z,3.83
2019-01-05T13:20:36.557Z,3.80
2019-01-05T13:23:52.480Z,3.20
2019-01-05T13:27:04.157Z,3.30
2019-01-05T13:29:44.881Z,3.07
2019-01-05T13:32:39.602Z,2.50
2019-01-05T13:35:36.022Z,2.40
2019-01-05T13:38:33.514Z,2.43
2019-01-05T13:41:41.976Z,2.53
2019-01-05T13:44:16.721Z,2.97
2019-01-05T13:47:15.432Z,2.70
2019-01-05T13:50:16.153Z,3.00
2019-01-05T13:52:57.176Z,2.77
2019-01-05T13:55:49.209Z,2.87
2019-01-05T13:58:34.174Z,11.53
2019-01-05T14:01:17.298Z,8.30
2019-01-05T14:03:57.457Z,5.77
2019-01-05T14:06:25.882Z,5.50
2019-01-05T14:09:05.973Z,4.63
2019-01-05T14:11:40.112Z,4.20
2019-01-05T14:14:24.855Z,4.07
2019-01-05T14:17:09.686Z,5.20
2019-01-05T14:19:55.754Z,4.77
2019-01-05T14:22:26.676Z,3.73
2019-01-05T14:25:00.721Z,4.87
2019-01-05T14:27:28.958Z,5.40
2019-01-05T14:30:13.576Z,4.50
2019-01-05T14:32:59.816Z,5.40
2019-01-05T14:35:44.350Z,5.63
2019-01-05T14:38:21.748Z,5.60
2019-01-05T14:40:58.947Z,5.03
2019-01-05T14:43:33.437Z,5.53
2019-01-05T14:46:01.751Z,5.70
2019-01-05T14:48:46.501Z,6.27
2019-01-05T14:51:31.601Z,6.27
2019-01-05T14:54:17.810Z,5.83
2019-01-05T14:56:55.094Z,5.13
2019-01-05T14:59:23.253Z,6.93
2019-01-05T15:02:00.347Z,5.67
2019-01-05T15:04:28.536Z,6.03
2019-01-05T15:06:56.823Z,6.10
2019-01-05T15:09:24.983Z,5.90
2019-01-05T15:12:09.731Z,5.63
2019-01-05T15:14:54.710Z,6.63
2019-01-05T15:17:22.884Z,6.13
2019-01-05T15:19:53.785Z,7.00
2019-01-05T15:22:27.984Z,6.30
2019-01-05T15:25:01.883Z,6.10
2019-01-05T15:27:46.704Z,6.30
2019-01-05T15:30:29.917Z,6.03
2019-01-05T15:33:06.869Z,5.90
2019-01-05T15:35:44.143Z,6.17
2019-01-05T15:38:15.061Z,6.07
2019-01-05T15:40:52.305Z,5.60
2019-01-05T15:43:26.686Z,5.60
2019-01-05T15:45:54.895Z,5.30
2019-01-05T15:48:32.066Z,7.20
2019-01-05T15:51:16.781Z,5.33
2019-01-05T15:53:57.348Z,6.10
2019-01-05T15:56:37.305Z,6.50
2019-01-05T15:59:22.034Z,5.77
2019-01-05T16:01:53.160Z,7.20
2019-01-05T16:04:27.238Z,6.50
2019-01-05T16:07:08.063Z,6.33
2019-01-05T16:09:53.325Z,7.00
2019-01-05T16:12:21.702Z,8.60
2019-01-05T16:14:52.782Z,7.73
2019-01-05T16:17:37.585Z,7.50
2019-01-05T16:20:24.937Z,5.93
2019-01-05T16:23:08.157Z,8.30
2019-01-05T16:25:36.319Z,9.23
2019-01-05T16:28:07.214Z,8.20
2019-01-05T16:30:50.386Z,9.20
2019-01-05T16:33:21.492Z,7.33
2019-01-05T16:35:55.844Z,8.13
2019-01-05T16:38:26.812Z,7.83
2019-01-05T16:40:55.023Z,7.53
2019-01-05T16:43:28.950Z,9.80
2019-01-05T16:46:13.864Z,9.17
2019-01-05T16:48:45.231Z,9.27
2019-01-05T16:51:29.857Z,8.10
2019-01-05T16:54:01.031Z,7.57
2019-01-05T16:56:41.429Z,7.27
2019-01-05T16:59:12.385Z,7.20
2019-01-05T17:01:49.790Z,8.47
2019-01-05T17:04:24.341Z,8.40
2019-01-05T17:06:58.486Z,7.70
2019-01-05T17:09:29.350Z,9.20
2019-01-05T17:11:57.739Z,20.23
2019-01-05T17:14:35.107Z,22.63
2019-01-05T17:17:03.497Z,37.07
2019-01-05T17:19:36.473Z,31.63
2019-01-05T17:22:01.698Z,16.33
2019-01-05T17:24:29.841Z,11.07
2019-01-05T17:27:14.830Z,8.53
2019-01-05T17:29:43.021Z,7.53
2019-01-05T17:32:14.445Z,6.60
2019-01-05T17:34:42.654Z,6.20
2019-01-05T17:37:10.826Z,5.83
2019-01-05T17:39:42.025Z,6.03
2019-01-05T17:42:26.865Z,6.40
2019-01-05T17:45:11.933Z,5.73
2019-01-05T17:47:49.322Z,4.70
2019-01-05T17:50:17.582Z,5.83
2019-01-05T17:52:54.709Z,5.50
2019-01-05T17:55:37.979Z,4.70
2019-01-05T17:58:06.230Z,4.73
2019-01-05T18:00:46.704Z,5.80
2019-01-05T18:03:31.724Z,4.77
2019-01-05T18:06:09.106Z,5.30
2019-01-05T18:08:37.257Z,4.20
2019-01-05T18:11:21.929Z,4.33
2019-01-05T18:13:53.249Z,5.00
2019-01-05T18:16:24.425Z,4.53
2019-01-05T18:19:11.008Z,4.43
2019-01-05T18:21:39.381Z,5.10
2019-01-05T18:24:07.825Z,4.37
2019-01-05T18:26:36.061Z,4.33
2019-01-05T18:29:12.973Z,3.93
2019-01-05T18:31:58.014Z,6.33
2019-01-05T18:34:26.354Z,7.87
2019-01-05T18:37:00.605Z,6.63
2019-01-05T18:39:45.297Z,5.67
2019-01-05T18:42:19.467Z,7.13
2019-01-05T18:44:50.643Z,15.00
2019-01-05T18:47:21.830Z,11.13
2019-01-05T18:49:52.786Z,9.63
2019-01-05T18:52:37.925Z,6.47
2019-01-05T18:55:22.979Z,5.27
2019-01-05T18:58:00.524Z,4.57
2019-01-05T19:00:45.392Z,4.60
2019-01-05T19:03:30.423Z,4.07
2019-01-05T19:06:16.978Z,4.37
2019-01-05T19:08:57.167Z,3.67
2019-01-05T19:11:34.304Z,4.57
2019-01-05T19:14:05.456Z,4.40
2019-01-05T19:16:39.846Z,4.20
2019-01-05T19:19:13.970Z,3.90
2019-01-05T19:21:54.476Z,4.67
2019-01-05T19:24:41.388Z,3.80
2019-01-05T19:27:12.829Z,4.00
2019-01-05T19:29:41.067Z,4.00
2019-01-05T19:32:12.165Z,3.30
2019-01-05T19:34:46.120Z,3.23
2019-01-05T19:37:31.549Z,3.33
2019-01-05T19:40:12.054Z,3.33
2019-01-05T19:42:40.333Z,4.37
2019-01-05T19:45:08.715Z,4.63
2019-01-05T19:47:53.610Z,5.80
2019-01-05T19:50:27.931Z,5.60
2019-01-05T19:53:12.646Z,4.77
2019-01-05T19:55:43.701Z,4.93
2019-01-05T19:58:21.146Z,4.20
2019-01-05T20:01:05.837Z,4.60
2019-01-05T20:03:38.233Z,4.37
2019-01-05T20:06:23.405Z,4.40
2019-01-05T20:08:54.283Z,8.37
2019-01-05T20:11:40.561Z,8.07
2019-01-05T20:14:21.122Z,6.90
2019-01-05T20:17:01.381Z,6.40
2019-01-05T20:19:32.550Z,8.50
2019-01-05T20:22:16.118Z,13.17
2019-01-05T20:24:59.370Z,22.23
2019-01-05T20:27:44.187Z,16.23
2019-01-05T20:30:20.759Z,9.83
2019-01-05T20:32:49.692Z,8.43
2019-01-05T20:35:30.338Z,7.50
2019-01-05T20:38:00.322Z,7.20
2019-01-05T20:40:31.663Z,9.53
2019-01-05T20:43:09.262Z,8.63
2019-01-05T20:45:43.817Z,6.67
2019-01-05T20:48:20.168Z,5.83
2019-01-05T20:50:54.657Z,5.50
2019-01-05T20:53:23.383Z,4.90
2019-01-05T20:56:06.055Z,4.50
2019-01-05T20:58:51.752Z,5.13
2019-01-05T21:01:27.288Z,5.07
2019-01-05T21:04:14.620Z,5.80
2019-01-05T21:07:04.401Z,4.93
2019-01-05T21:09:47.874Z,6.27
2019-01-05T21:12:18.114Z,5.00
2019-01-05T21:14:56.950Z,6.10
2019-01-05T21:17:25.884Z,4.90
2019-01-05T21:20:03.398Z,4.97
2019-01-05T21:22:31.708Z,6.57
2019-01-05T21:25:22.880Z,6.57
2019-01-05T21:27:54.517Z,6.03
2019-01-05T21:30:28.835Z,5.47
2019-01-05T21:33:02.726Z,5.40
2019-01-05T21:35:31.104Z,5.20
2019-01-05T21:38:16.111Z,6.43
2019-01-05T21:40:53.600Z,5.57
2019-01-05T21:43:27.860Z,5.97
2019-01-05T21:46:08.074Z,6.10
2019-01-05T21:48:36.244Z,5.67
2019-01-05T21:51:10.573Z,5.27
2019-01-05T21:53:54.065Z,5.87
2019-01-05T21:56:34.546Z,5.77
2019-01-05T21:59:02.925Z,5.70
2019-01-05T22:01:47.810Z,5.40
2019-01-05T22:04:25.146Z,4.93
2019-01-05T22:07:02.613Z,5.87
2019-01-05T22:09:47.447Z,5.20
2019-01-05T22:12:15.678Z,5.00
2019-01-05T22:15:00.340Z,5.33
2019-01-05T22:17:31.268Z,5.70
2019-01-05T22:20:14.450Z,4.90
2019-01-05T22:22:45.727Z,5.17
2019-01-05T22:25:30.448Z,5.73
2019-01-05T22:28:15.502Z,5.73
2019-01-05T22:30:52.863Z,5.20
2019-01-05T22:33:30.117Z,5.27
2019-01-05T22:35:58.241Z,4.90
2019-01-05T22:38:26.448Z,5.10
2019-01-05T22:41:09.586Z,4.20
2019-01-05T22:43:41.268Z,5.70
2019-01-05T22:46:26.206Z,4.50
2019-01-05T22:48:57.389Z,4.97
2019-01-05T22:51:40.665Z,4.73
2019-01-05T22:54:25.315Z,4.57
2019-01-05T22:56:59.786Z,4.40
2019-01-05T22:59:44.605Z,5.07
2019-01-05T23:02:12.900Z,4.53
2019-01-05T23:04:41.269Z,4.63
2019-01-05T23:07:29.576Z,4.57
2019-01-05T23:10:10.012Z,4.37
2019-01-05T23:12:56.731Z,5.27
2019-01-05T23:15:43.658Z,5.43
2019-01-05T23:18:15.341Z,5.50
2019-01-05T23:20:50.280Z,5.50
2019-01-05T23:23:21.496Z,5.63
2019-01-05T23:26:07.080Z,6.63
2019-01-05T23:28:35.646Z,5.47
2019-01-05T23:31:22.776Z,6.90
2019-01-05T23:33:51.822Z,6.87
2019-01-05T23:36:40.876Z,6.30
2019-01-05T23:39:26.205Z,6.80
2019-01-05T23:42:07.021Z,6.13
2019-01-05T23:44:38.192Z,7.00
2019-01-05T23:47:09.402Z,7.40
2019-01-05T23:49:51.308Z,6.47
2019-01-05T23:52:40.751Z,6.03
2019-01-05T23:55:17.650Z,6.50
2019-01-05T23:58:00.423Z,5.90
